Windsor Locks, CT (06096)

7:38 AM EDT on August 19, 2017 (GMT -0400)
Senegel Island | | Change Station

Elev 121 ft 41.93 °N, 72.65 °W | Updated 23 seconds ago

Scattered Clouds
Scattered Clouds
75.3 °F
Feels Like 76 °F
N
0.0
Wind Variable Wind from SSW

Today
High -- | Low -- °F
--% Chance of Precip.
Yesterday
High -- | Low -- °F
Precip. -- in
Pressure 29.81 in
Visibility 10.0 miles
Clouds Few 15000 ft
Few 22000 ft
Scattered Clouds 25000 ft
Heat Index 76 °F
Dew Point 70 °F
Humidity 83%
Rainfall 0.00 in
Snow Depth Not available.
6:02 AM 7:44 PM
Waning Crescent, 7% visible
METAR KBDL 191051Z 29008KT 10SM FEW150 FEW220 SCT250 21/19 A2981 RMK AO2 SLP092 T02110194
Pressure 29.81 in
Visibility 10.0 miles
Clouds Few 15000 ft
Few 22000 ft
Scattered Clouds 25000 ft
Heat Index 76 °F
Dew Point 70 °F
Humidity 83%
Rainfall 0.00 in
Snow Depth Not available.
6:02 AM 7:44 PM
Waning Crescent, 7% visible
METAR KBDL 191051Z 29008KT 10SM FEW150 FEW220 SCT250 21/19 A2981 RMK AO2 SLP092 T02110194

Get Severe Weather Alerts

Thanks for signing up!

Be on the lookout for a verification email in your inbox.

You'll start receiving the daily forecast at 6 AM.

×

10-Day Weather Forecast

Almanac

Astronomy

Aug. 19, 2017 Rise Set
Actual Time
Civil Twilight
Nautical Twilight
Astronomical Twilight
Moon
Length of Visible Light
Length of Day
Tomorrow will be .
, % of the Moon is Illuminated

Today's Extremes

State Highs State Lows

Community

WunderPhotos

Category 6

Welcome to Category 6. This is the collective home for Weather Underground's featured writeups by Dr. Jeff Masters (right), Bob Henson (left), Chris Burt, and other regular contributors.

Nearby

Air Quality

  Air Quality AQ Index Pollutant
Not available.

Snow Depth

Station Depth Elevation

Earthquake Activity

City Distance Mag. Time & Date
Minimum magnitude displayed is 2.5.

Coastal Water Temperatures

Place Temperature

Stations

Nearby Weather Stations

Station Location Temp. Windchill Dew Point Humidity Wind Precip. Elev Updated Type
                   

Watches & Warnings

There are currently no watches in effect.